Time;durP1;ratioP1;P1;durP2;ratioP2;P2;SDS_P1;SDS_P2;PMS_P1;PMS_P2;Temp;Humidity;BMP_temperature;BMP_pressure;BME280_temperature;BME280_humidity;BME280_pressure;Samples;Min_cycle;Max_cycle;Signal;HPM_P1;HPM_P2
2022/08/16 00:00:11;;;;;;;27.25;24.35;;;;;;;28.62;60.18;100690.95;1629213;88;21022;-49
2022/08/16 00:02:38;;;;;;;30.88;26.23;;;;;;;28.62;60.08;100685.59;1629555;88;21525;-51
2022/08/16 00:05:06;;;;;;;28.73;25.57;;;;;;;28.62;59.98;100688.27;1628859;88;21040;-50
2022/08/16 00:07:33;;;;;;;31.50;25.08;;;;;;;28.61;59.96;100689.25;1628290;88;21012;-52
2022/08/16 00:09:59;;;;;;;27.67;24.75;;;;;;;28.62;59.95;100689.61;1628250;88;21116;-49
2022/08/16 00:12:27;;;;;;;30.35;23.60;;;;;;;28.59;59.99;100685.88;1629040;88;21070;-49
2022/08/16 00:14:55;;;;;;;24.75;22.15;;;;;;;28.59;59.89;100684.55;1627958;88;21060;-51
2022/08/16 00:17:22;;;;;;;24.50;21.85;;;;;;;28.59;59.85;100683.69;1628889;87;21568;-52
2022/08/16 00:19:48;;;;;;;23.73;20.32;;;;;;;28.56;59.79;100682.67;1652439;86;21050;-50
2022/08/16 00:22:15;;;;;;;22.25;19.95;;;;;;;28.54;59.77;100677.41;1658038;86;21057;-52
2022/08/16 00:24:43;;;;;;;22.02;19.65;;;;;;;28.54;59.72;100677.41;1666412;86;21624;-54
2022/08/16 00:27:10;;;;;;;22.13;19.40;;;;;;;28.52;59.61;100676.72;1649493;86;21070;-49
2022/08/16 00:29:37;;;;;;;20.88;18.73;;;;;;;28.53;59.56;100674.89;1659424;86;21019;-53
2022/08/16 00:32:06;;;;;;;20.20;18.12;;;;;;;28.50;59.50;100677.36;1661688;86;21062;-51
2022/08/16 00:34:35;;;;;;;19.23;17.37;;;;;;;28.48;59.57;100674.00;1657854;86;21603;-50
2022/08/16 00:37:03;;;;;;;20.50;18.48;;;;;;;28.46;59.61;100674.64;1640509;85;21566;-52
2022/08/16 00:39:30;;;;;;;20.27;17.15;;;;;;;28.46;59.73;100676.50;1664905;85;21140;-50
2022/08/16 00:41:56;;;;;;;19.27;17.27;;;;;;;28.44;59.64;100670.45;1665379;85;21058;-50
2022/08/16 00:44:23;;;;;;;18.75;16.97;;;;;;;28.42;59.41;100673.25;1675021;85;21095;-52
2022/08/16 00:47:04;;;;;;;20.95;18.00;;;;;;;28.40;59.38;100673.91;1662447;85;21050;-53
2022/08/16 00:49:32;;;;;;;;;;;;;;;28.39;59.42;100678.92;1665197;84;21062;-49
2022/08/16 00:51:58;;;;;;;18.55;16.55;;;;;;;28.38;59.42;100685.25;1691662;83;20565;-51
2022/08/16 00:54:28;;;;;;;17.98;16.05;;;;;;;28.32;59.57;100683.17;1692886;83;21121;-50
2022/08/16 00:56:55;;;;;;;18.32;16.52;;;;;;;28.34;59.41;100681.19;1655570;86;21026;-54
2022/08/16 00:59:24;;;;;;;17.67;15.93;;;;;;;28.30;59.24;100674.45;1691041;84;21085;-52
2022/08/16 01:01:51;;;;;;;18.50;16.60;;;;;;;28.31;59.18;100668.13;1647881;86;21094;-53
2022/08/16 01:04:21;;;;;;;18.62;16.85;;;;;;;28.31;59.26;100672.14;1641438;86;21577;-51
2022/08/16 01:06:49;;;;;;;19.37;16.85;;;;;;;28.30;59.34;100666.42;1643822;86;21039;-52
2022/08/16 01:09:17;;;;;;;17.50;15.72;;;;;;;28.27;59.58;100670.75;1640048;86;21066;-49
2022/08/16 01:11:43;;;;;;;17.77;15.95;;;;;;;28.26;59.69;100671.73;1645784;86;21023;-50
2022/08/16 01:14:16;;;;;;;18.35;16.60;;;;;;;28.24;59.87;100668.36;1701374;84;21607;-49
2022/08/16 01:16:42;;;;;;;19.25;17.17;;;;;;;28.23;60.01;100672.04;1690970;83;20986;-53
2022/08/16 01:19:29;;;;;;;18.02;16.25;;;;;;;28.22;60.09;100671.67;1636061;86;21102;-50
2022/08/16 01:22:06;;;;;;;17.87;16.02;;;;;;;28.24;60.07;100673.70;1684631;83;21102;-51
2022/08/16 01:24:41;;;;;;;17.82;15.93;;;;;;;28.23;59.93;100669.36;1690111;83;21548;-50
2022/08/16 01:27:15;;;;;;;18.57;16.23;;;;;;;28.23;59.86;100673.38;1701755;83;21006;-50
2022/08/16 01:30:17;;;;;;;19.00;16.48;;;;;;;28.24;59.88;100676.38;1690092;83;21007;-50
2022/08/16 01:32:44;;;;;;;18.77;16.77;;;;;;;28.22;59.89;100670.83;1655584;85;21055;-52
2022/08/16 01:35:19;;;;;;;18.50;16.80;;;;;;;28.20;59.97;100677.67;1728854;81;22359;-56
2022/08/16 01:37:53;;;;;;;18.98;17.27;;;;;;;28.20;60.04;100675.00;1677293;83;21029;-50
2022/08/16 01:40:27;;;;;;;19.00;17.20;;;;;;;28.20;60.10;100676.34;1619813;86;21073;-49
2022/08/16 01:42:53;;;;;;;19.10;17.12;;;;;;;28.20;60.10;100668.31;1625044;86;21129;-49
2022/08/16 01:45:20;;;;;;;18.60;16.95;;;;;;;28.20;60.16;100662.95;1625488;88;21021;-55
2022/08/16 01:47:50;;;;;;;16.48;14.87;;;;;;;28.19;60.25;100665.30;1625135;86;21054;-50
2022/08/16 01:50:16;;;;;;;17.67;15.98;;;;;;;28.21;60.29;100665.14;1623321;86;21078;-51
2022/08/16 01:52:43;;;;;;;17.85;16.05;;;;;;;28.20;60.38;100666.97;1622717;86;21094;-51
2022/08/16 01:55:11;;;;;;;17.23;15.53;;;;;;;28.22;60.33;100669.00;1610764;86;21121;-48
2022/08/16 01:57:38;;;;;;;17.30;15.50;;;;;;;28.21;60.25;100670.01;1625448;87;21518;-50
2022/08/16 02:00:10;;;;;;;17.48;15.80;;;;;;;28.21;60.19;100665.99;1624824;86;21506;-50
2022/08/16 02:02:39;;;;;;;14.78;13.43;;;;;;;28.22;60.19;100665.47;1624985;86;21042;-49
2022/08/16 02:05:06;;;;;;;13.18;11.85;;;;;;;28.25;60.12;100666.05;1655295;85;21022;-51
2022/08/16 02:07:33;;;;;;;14.05;12.55;;;;;;;28.15;60.41;100661.23;1677698;83;21046;-51
2022/08/16 02:10:00;;;;;;;14.93;12.50;;;;;;;28.20;60.28;100661.62;1668523;83;21054;-49
2022/08/16 02:12:29;;;;;;;13.30;11.60;;;;;;;28.18;60.44;100662.27;1674302;83;21022;-55
2022/08/16 02:14:56;;;;;;;11.03;9.93;;;;;;;28.19;60.48;100663.96;1701008;82;21041;-49
2022/08/16 02:17:23;;;;;;;11.38;10.28;;;;;;;28.21;60.51;100659.80;1731824;80;21545;-50
2022/08/16 02:19:50;;;;;;;14.05;10.98;;;;;;;28.24;60.50;100660.33;1730664;81;21011;-49
2022/08/16 02:22:20;;;;;;;14.23;11.63;;;;;;;28.25;60.59;100663.38;1728003;81;21007;-50
2022/08/16 02:24:46;;;;;;;11.70;10.60;;;;;;;28.26;60.67;100659.69;1728610;81;20979;-50
2022/08/16 02:27:13;;;;;;;12.85;10.45;;;;;;;28.27;60.73;100660.53;1728669;81;21014;-53
2022/08/16 02:29:41;;;;;;;12.73;10.98;;;;;;;28.29;60.74;100655.39;1722133;82;21029;-50
2022/08/16 02:32:13;;;;;;;13.72;10.88;;;;;;;28.32;60.72;100664.44;1730569;81;20991;-51
2022/08/16 02:34:40;;;;;;;15.23;11.70;;;;;;;28.34;60.72;100663.80;1729012;81;21011;-50
2022/08/16 02:37:07;;;;;;;15.30;11.60;;;;;;;28.35;60.74;100664.64;1721193;81;21092;-52
2022/08/16 02:39:34;;;;;;;17.10;12.07;;;;;;;28.37;60.70;100670.20;1730559;81;21010;-50
2022/08/16 02:42:01;;;;;;;14.18;11.85;;;;;;;28.37;60.79;100664.84;1731953;81;20987;-49
2022/08/16 02:44:28;;;;;;;13.60;12.20;;;;;;;28.39;60.86;100672.23;1727157;82;21561;-51
2022/08/16 02:46:55;;;;;;;16.67;12.85;;;;;;;28.39;60.95;100668.22;1731995;81;21018;-50
2022/08/16 02:49:22;;;;;;;13.32;11.97;;;;;;;28.39;60.92;100672.23;1730012;81;21514;-51
2022/08/16 02:51:49;;;;;;;15.38;12.68;;;;;;;28.41;60.91;100671.59;1715762;81;20996;-50
2022/08/16 02:54:16;;;;;;;14.93;11.60;;;;;;;28.41;60.95;100672.92;1736681;81;21007;-53
2022/08/16 02:56:43;;;;;;;17.45;12.47;;;;;;;28.42;60.98;100673.25;1725145;81;21034;-52
2022/08/16 02:59:11;;;;;;;13.72;11.55;;;;;;;28.42;61.05;100671.92;1708263;81;21057;-50
2022/08/16 03:01:38;;;;;;;14.75;11.25;;;;;;;28.44;61.05;100671.27;1736560;81;21062;-52
2022/08/16 03:04:09;;;;;;;;;;;;;;;28.44;61.05;100673.95;1732842;81;21020;-51
2022/08/16 03:06:36;;;;;;;12.80;10.68;;;;;;;28.44;61.02;100669.94;1731248;81;20109;-50
2022/08/16 03:09:04;;;;;;;11.15;9.83;;;;;;;28.44;61.00;100671.27;1732117;81;21499;-51
2022/08/16 03:11:34;;;;;;;10.70;9.70;;;;;;;28.45;60.97;100668.95;1696022;83;21514;-50
2022/08/16 03:14:02;;;;;;;12.07;9.00;;;;;;;28.45;60.95;100668.11;1697564;84;21073;-50
2022/08/16 03:16:29;;;;;;;9.93;8.75;;;;;;;28.44;60.94;100670.45;1699726;83;20999;-49
2022/08/16 03:18:57;;;;;;;10.10;9.08;;;;;;;28.41;60.99;100668.91;1701640;83;21003;-52
2022/08/16 03:21:24;;;;;;;8.85;8.00;;;;;;;28.42;60.97;100669.24;1700520;84;21026;-51
2022/08/16 03:23:51;;;;;;;8.90;7.85;;;;;;;28.44;60.95;100669.11;1733462;81;21106;-49
2022/08/16 03:26:19;;;;;;;7.53;6.70;;;;;;;28.44;60.88;100664.58;1732572;81;21507;-52
2022/08/16 03:28:46;;;;;;;7.60;6.95;;;;;;;28.45;60.80;100665.43;1712171;83;21042;-50
2022/08/16 03:31:13;;;;;;;7.70;6.70;;;;;;;28.46;60.63;100661.26;1689164;84;21030;-51
2022/08/16 03:33:39;;;;;;;7.17;6.50;;;;;;;28.47;60.44;100658.94;1698475;84;21521;-49
2022/08/16 03:36:07;;;;;;;7.10;6.40;;;;;;;28.49;60.09;100660.97;1697368;84;21046;-49
2022/08/16 03:38:36;;;;;;;9.83;6.22;;;;;;;28.48;59.82;100655.26;1734452;82;21007;-52
2022/08/16 03:41:05;;;;;;;8.85;6.62;;;;;;;28.51;59.53;100653.63;1734063;81;21054;-52
2022/08/16 03:43:32;;;;;;;6.37;5.67;;;;;;;28.52;59.34;100654.48;1734125;81;21504;-52
2022/08/16 03:45:59;;;;;;;8.05;6.37;;;;;;;28.52;59.27;100652.62;1689145;84;21546;-50
2022/08/16 03:48:31;;;;;;;9.85;6.78;;;;;;;28.53;59.25;100653.48;1728834;81;21523;-51
2022/08/16 03:51:00;;;;;;;;;;;;;;;28.54;59.21;100653.31;1738087;81;21062;-50
2022/08/16 03:53:29;;;;;;;8.13;7.22;;;;;;;28.56;59.08;100656.75;1691517;83;20382;-51
2022/08/16 03:55:55;;;;;;;7.42;6.28;;;;;;;28.58;58.97;100662.80;1697479;83;21058;-49
2022/08/16 03:58:22;;;;;;;11.45;6.75;;;;;;;28.60;58.96;100654.11;1693475;84;21098;-51
2022/08/16 04:00:49;;;;;;;10.30;7.65;;;;;;;28.62;58.95;100656.14;1692500;83;21591;-50
2022/08/16 04:03:16;;;;;;;8.18;7.37;;;;;;;28.65;58.92;100661.67;1693886;83;21034;-50
2022/08/16 04:05:46;;;;;;;11.03;6.47;;;;;;;28.67;58.92;100664.55;1692546;83;21560;-53
2022/08/16 04:08:13;;;;;;;8.43;7.50;;;;;;;28.69;58.96;100663.90;1695840;83;21023;-52
2022/08/16 04:10:40;;;;;;;10.32;7.58;;;;;;;28.70;58.92;100665.59;1695038;83;21058;-53
2022/08/16 04:13:07;;;;;;;8.10;7.12;;;;;;;28.75;58.88;100665.12;1696248;84;21064;-50
2022/08/16 04:15:33;;;;;;;10.20;8.50;;;;;;;28.78;58.91;100664.34;1684291;83;21011;-52
2022/08/16 04:18:15;;;;;;;10.35;8.50;;;;;;;28.81;58.89;100667.22;1691315;83;22281;-51
2022/08/16 04:20:42;;;;;;;9.93;8.88;;;;;;;28.84;58.79;100666.41;1696609;83;21031;-55
2022/08/16 04:23:08;;;;;;;11.45;8.98;;;;;;;28.88;58.80;100670.47;1693177;84;21106;-51
2022/08/16 04:25:37;;;;;;;12.37;10.40;;;;;;;28.89;58.73;100671.31;1726730;82;21019;-52
2022/08/16 04:28:06;;;;;;;15.95;11.97;;;;;;;28.92;58.60;100664.30;1736970;81;20984;-49
2022/08/16 04:30:33;;;;;;;18.73;13.10;;;;;;;28.93;58.36;100664.66;1732826;81;21551;-51
2022/08/16 04:33:00;;;;;;;14.73;12.53;;;;;;;28.93;58.15;100662.80;1732005;81;21035;-50
2022/08/16 04:35:28;;;;;;;18.07;13.32;;;;;;;28.98;57.70;100661.86;1731076;81;21015;-51
2022/08/16 04:37:55;;;;;;;14.43;12.13;;;;;;;29.01;57.31;100670.58;1731407;81;21047;-50
2022/08/16 04:40:24;;;;;;;15.88;12.98;;;;;;;29.02;57.07;100670.94;1731873;81;21038;-53
2022/08/16 04:42:52;;;;;;;17.95;13.85;;;;;;;28.98;56.93;100676.59;1732285;81;21027;-50
2022/08/16 04:45:21;;;;;;;17.87;13.05;;;;;;;28.96;56.66;100673.22;1734510;81;21757;-50
2022/08/16 04:47:48;;;;;;;16.87;13.62;;;;;;;28.96;56.69;100682.60;1734005;81;21019;-51
2022/08/16 04:50:21;;;;;;;17.17;12.43;;;;;;;28.99;56.67;100680.13;1731997;81;21046;-52
2022/08/16 04:52:59;;;;;;;13.72;12.30;;;;;;;29.00;56.70;100679.62;1738706;81;21073;-51
2022/08/16 04:55:28;;;;;;;13.38;11.20;;;;;;;29.07;56.37;100678.00;1733199;81;21074;-50
2022/08/16 04:57:55;;;;;;;12.58;11.28;;;;;;;29.08;56.02;100675.16;1734642;81;21002;-51
2022/08/16 05:00:30;;;;;;;11.70;10.40;;;;;;;29.09;55.99;100680.88;1734427;81;21019;-51
2022/08/16 05:02:55;;;;;;;11.00;9.65;;;;;;;29.11;55.99;100681.56;1730985;82;21007;-50
2022/08/16 05:05:22;;;;;;;10.25;9.25;;;;;;;29.16;55.80;100687.84;1733606;81;21475;-51
2022/08/16 05:07:49;;;;;;;9.95;9.03;;;;;;;29.15;55.64;100687.48;1731316;81;21515;-50
2022/08/16 05:10:17;;;;;;;12.30;9.40;;;;;;;29.16;55.32;100683.83;1726701;82;21105;-51
2022/08/16 05:12:43;;;;;;;11.78;10.35;;;;;;;29.13;55.06;100687.61;1731371;81;21038;-51
2022/08/16 05:15:11;;;;;;;10.80;9.35;;;;;;;29.22;54.69;100695.27;1729654;81;21019;-54
2022/08/16 05:17:38;;;;;;;10.13;9.10;;;;;;;29.22;54.15;100699.28;1696622;84;21057;-53
2022/08/16 05:20:08;;;;;;;13.68;9.70;;;;;;;29.24;53.79;100694.61;1729410;81;21079;-55
2022/08/16 05:22:38;;;;;;;14.80;11.23;;;;;;;29.23;53.75;100692.42;1697072;84;20982;-50
2022/08/16 05:25:07;;;;;;;13.95;11.65;;;;;;;29.23;53.52;100701.80;1731388;81;20995;-50
2022/08/16 05:27:34;;;;;;;16.70;13.08;;;;;;;29.21;53.66;100706.48;1726352;81;21464;-51
2022/08/16 05:30:02;;;;;;;18.23;13.83;;;;;;;29.25;53.78;100704.32;1725556;82;21098;-49
2022/08/16 05:32:31;;;;;;;14.60;11.93;;;;;;;29.20;53.92;100712.00;1734439;81;21010;-55
2022/08/16 05:34:58;;;;;;;12.00;10.72;;;;;;;29.33;53.54;100705.73;1731697;81;21467;-53
2022/08/16 05:37:24;;;;;;;11.68;10.48;;;;;;;29.38;53.28;100708.31;1733977;81;21019;-53
2022/08/16 05:39:51;;;;;;;14.90;10.63;;;;;;;29.41;53.07;100704.45;1702194;82;21606;-50
2022/08/16 05:42:18;;;;;;;14.03;10.38;;;;;;;29.43;52.77;100705.17;1736450;81;21007;-52
2022/08/16 05:44:44;;;;;;;14.75;11.00;;;;;;;29.45;52.61;100713.91;1733572;81;21023;-55
2022/08/16 05:47:12;;;;;;;12.03;10.88;;;;;;;29.50;52.30;100716.95;1731653;81;21467;-49
2022/08/16 05:49:39;;;;;;;13.10;9.88;;;;;;;29.56;52.03;100710.47;1730874;81;21047;-52
2022/08/16 05:52:07;;;;;;;11.53;10.18;;;;;;;29.64;51.57;100715.04;1732652;81;21487;-50
2022/08/16 05:54:33;;;;;;;12.03;10.68;;;;;;;29.69;51.40;100717.62;1731075;81;21039;-51
2022/08/16 05:57:00;;;;;;;13.83;10.78;;;;;;;29.76;51.22;100712.47;1728119;81;21027;-50
2022/08/16 05:59:27;;;;;;;11.18;10.18;;;;;;;29.81;51.05;100708.83;1732602;82;21027;-51
2022/08/16 06:01:55;;;;;;;13.30;9.75;;;;;;;29.87;50.76;100704.17;1735090;81;20999;-55
2022/08/16 06:04:23;;;;;;;10.95;9.83;;;;;;;29.92;50.49;100705.90;1734686;81;21472;-52
2022/08/16 06:06:50;;;;;;;11.22;9.20;;;;;;;29.99;50.22;100709.61;1691651;84;21471;-52
2022/08/16 06:09:18;;;;;;;13.35;9.23;;;;;;;30.06;50.02;100706.65;1696277;84;21551;-53
2022/08/16 06:11:45;;;;;;;12.45;8.98;;;;;;;30.16;49.76;100703.84;1697779;84;21014;-53
2022/08/16 06:14:12;;;;;;;10.82;9.28;;;;;;;30.28;49.42;100707.42;1681273;85;21553;-53
2022/08/16 06:16:41;;;;;;;9.35;8.55;;;;;;;30.43;49.15;100709.04;1668438;85;21077;-50
2022/08/16 06:19:07;;;;;;;12.60;9.35;;;;;;;30.57;48.32;100711.10;1712967;83;21110;-52
2022/08/16 06:21:36;;;;;;;9.43;8.55;;;;;;;30.67;47.94;100709.61;1699211;83;21124;-53
2022/08/16 06:24:03;;;;;;;11.28;9.00;;;;;;;30.75;47.42;100711.83;1674666;84;21062;-53
2022/08/16 06:26:32;;;;;;;14.75;9.15;;;;;;;30.79;47.43;100713.70;1674652;86;21089;-52
2022/08/16 06:28:58;;;;;;;9.53;8.53;;;;;;;30.87;46.84;100709.72;1708772;83;21038;-53
2022/08/16 06:31:27;;;;;;;11.12;9.00;;;;;;;30.92;46.63;100710.05;1705084;84;21062;-53
2022/08/16 06:33:54;;;;;;;14.87;9.68;;;;;;;30.95;46.46;100706.55;1708688;83;21094;-51
2022/08/16 06:36:22;;;;;;;10.60;9.50;;;;;;;30.98;46.76;100708.05;1674820;86;21115;-53
2022/08/16 06:38:58;;;;;;;10.90;9.80;;;;;;;31.00;47.13;100706.03;1671341;86;21023;-51
2022/08/16 06:41:26;;;;;;;12.00;9.43;;;;;;;31.00;47.46;100704.69;1659655;86;21490;-50
2022/08/16 06:43:55;;;;;;;12.00;9.35;;;;;;;31.01;47.55;100706.39;1637116;86;21032;-57
2022/08/16 06:46:33;;;;;;;10.32;9.18;;;;;;;31.02;47.67;100703.53;1662165;85;21106;-51
2022/08/16 06:49:01;;;;;;;11.28;8.90;;;;;;;30.99;47.91;100703.88;1655289;85;21058;-50
2022/08/16 06:51:29;;;;;;;10.43;8.75;;;;;;;31.03;48.06;100707.06;1715453;82;21557;-49
2022/08/16 06:53:56;;;;;;;9.70;8.80;;;;;;;31.14;47.60;100709.44;1708546;84;21092;-51
2022/08/16 06:56:22;;;;;;;10.78;9.03;;;;;;;31.13;47.61;100715.31;1708737;84;21041;-50
2022/08/16 06:58:52;;;;;;;10.08;8.85;;;;;;;31.16;47.41;100712.80;1658363;85;21096;-49
2022/08/16 07:01:21;;;;;;;10.85;8.25;;;;;;;31.26;47.16;100708.10;1711916;84;21043;-50
2022/08/16 07:03:49;;;;;;;9.53;8.55;;;;;;;31.28;46.89;100714.97;1711714;84;21560;-54
2022/08/16 07:06:17;;;;;;;9.00;8.13;;;;;;;31.29;46.92;100715.81;1711636;84;21044;-55
2022/08/16 07:08:48;;;;;;;8.98;8.08;;;;;;;31.30;47.04;100709.45;1711304;84;21544;-54
2022/08/16 07:11:19;;;;;;;8.50;7.70;;;;;;;31.31;47.08;100716.48;1709951;84;21072;-49
2022/08/16 07:13:47;;;;;;;9.90;8.33;;;;;;;31.32;46.86;100713.62;1708930;84;21060;-53
2022/08/16 07:16:15;;;;;;;8.83;7.90;;;;;;;31.36;46.57;100714.65;1708908;84;21087;-50
2022/08/16 07:18:44;;;;;;;11.85;7.90;;;;;;;31.37;46.44;100715.82;1708952;84;21016;-53
2022/08/16 07:21:12;;;;;;;10.32;7.22;;;;;;;31.22;46.99;100710.80;1657663;86;21104;-50
2022/08/16 07:23:40;;;;;;;10.18;7.55;;;;;;;31.22;47.04;100713.48;1704449;84;21049;-51
2022/08/16 07:26:12;;;;;;;12.23;7.67;;;;;;;31.26;46.90;100710.80;1691632;84;21000;-53
2022/08/16 07:28:38;;;;;;;7.28;6.67;;;;;;;31.57;46.42;100711.84;1708828;84;21063;-48
2022/08/16 07:31:06;;;;;;;9.30;7.25;;;;;;;31.50;46.62;100713.51;1708680;84;21048;-51
2022/08/16 07:33:36;;;;;;;7.28;6.58;;;;;;;31.59;46.26;100712.51;1708917;84;21076;-55
2022/08/16 07:36:05;;;;;;;7.92;7.20;;;;;;;31.68;45.95;100715.51;1708900;84;21104;-54
2022/08/16 07:38:34;;;;;;;8.28;7.47;;;;;;;31.77;45.91;100710.47;1695889;84;21010;-51
2022/08/16 07:41:02;;;;;;;7.97;7.17;;;;;;;31.97;45.40;100715.84;1687411;85;21070;-50
2022/08/16 07:43:31;;;;;;;7.78;6.87;;;;;;;31.89;46.01;100711.78;1687305;85;21522;-49
2022/08/16 07:46:00;;;;;;;7.45;6.75;;;;;;;31.90;46.11;100709.94;1698378;83;21087;-56
2022/08/16 07:48:27;;;;;;;7.55;6.65;;;;;;;31.93;46.26;100715.84;1704108;82;21556;-51
2022/08/16 07:50:55;;;;;;;8.80;6.90;;;;;;;31.94;46.56;100713.47;1703834;81;21516;-57
2022/08/16 07:53:22;;;;;;;10.05;6.50;;;;;;;31.96;46.48;100720.87;1729353;81;21063;-52
2022/08/16 07:55:50;;;;;;;7.25;6.55;;;;;;;31.96;46.46;100718.17;1699655;84;21041;-49
2022/08/16 07:58:19;;;;;;;7.72;6.97;;;;;;;32.11;46.21;100714.80;1730617;82;21027;-52
2022/08/16 08:00:46;;;;;;;8.40;6.58;;;;;;;32.17;46.21;100714.92;1687858;84;21038;-53
2022/08/16 08:03:13;;;;;;;7.67;6.20;;;;;;;32.16;46.04;100707.03;1696335;83;21103;-51
2022/08/16 08:05:40;;;;;;;6.72;5.85;;;;;;;31.94;46.65;100712.13;1692452;84;20995;-49
2022/08/16 08:08:07;;;;;;;6.87;6.28;;;;;;;31.81;47.01;100711.80;1697387;83;21078;-53
2022/08/16 08:10:34;;;;;;;6.70;6.08;;;;;;;32.00;46.48;100718.20;1686606;84;21526;-51
2022/08/16 08:13:01;;;;;;;6.45;5.80;;;;;;;32.02;46.26;100718.87;1736936;81;21543;-50
2022/08/16 08:15:29;;;;;;;6.78;6.00;;;;;;;31.80;47.07;100725.44;1734164;81;21066;-52
2022/08/16 08:17:56;;;;;;;6.37;5.75;;;;;;;31.76;47.54;100727.61;1733222;81;20993;-57
2022/08/16 08:20:25;;;;;;;8.40;6.00;;;;;;;31.86;47.31;100728.26;1736008;81;21027;-53
2022/08/16 08:22:54;;;;;;;7.33;6.45;;;;;;;31.85;47.49;100727.09;1735519;82;21043;-56
2022/08/16 08:25:21;;;;;;;7.25;6.00;;;;;;;31.86;47.38;100723.41;1700703;84;21530;-50
2022/08/16 08:27:49;;;;;;;6.37;5.78;;;;;;;31.89;47.60;100727.08;1700580;84;21074;-52
2022/08/16 08:30:16;;;;;;;6.92;6.28;;;;;;;31.91;47.65;100730.45;1695388;84;21042;-53
2022/08/16 08:32:44;;;;;;;6.37;5.78;;;;;;;32.17;47.17;100738.34;1698023;83;21022;-55
2022/08/16 08:35:11;;;;;;;6.58;5.80;;;;;;;32.22;47.32;100737.30;1697708;84;21042;-50
2022/08/16 08:37:39;;;;;;;6.90;6.22;;;;;;;32.25;47.04;100738.31;1697891;83;21030;-55
2022/08/16 08:40:10;;;;;;;7.17;5.78;;;;;;;32.27;47.09;100737.63;1699955;83;21025;-49
2022/08/16 08:42:37;;;;;;;6.97;6.25;;;;;;;32.29;47.24;100732.91;1736387;81;20999;-49
2022/08/16 08:45:05;;;;;;;7.10;6.47;;;;;;;32.29;47.07;100735.61;1734787;81;21033;-51
2022/08/16 08:47:33;;;;;;;6.97;6.37;;;;;;;32.31;46.87;100737.63;1733144;81;21010;-50
2022/08/16 08:50:00;;;;;;;6.65;6.10;;;;;;;32.34;46.65;100746.68;1735085;81;21578;-54
2022/08/16 08:52:29;;;;;;;7.20;6.22;;;;;;;32.32;46.30;100742.83;1735028;82;21050;-50
2022/08/16 08:54:55;;;;;;;7.65;6.45;;;;;;;32.35;46.20;100741.64;1698517;84;21491;-50
2022/08/16 08:57:22;;;;;;;6.65;5.92;;;;;;;32.30;46.12;100747.55;1698575;84;21089;-56
2022/08/16 08:59:50;;;;;;;8.75;6.53;;;;;;;32.22;46.36;100750.27;1720016;81;21031;-52
2022/08/16 09:02:18;;;;;;;6.70;6.10;;;;;;;32.32;45.93;100744.67;1699488;84;21022;-50
2022/08/16 09:04:47;;;;;;;6.65;6.03;;;;;;;32.26;46.12;100744.87;1696795;84;21037;-50
2022/08/16 09:07:16;;;;;;;6.42;5.83;;;;;;;32.33;46.21;100747.71;1703158;84;21089;-53
2022/08/16 09:09:43;;;;;;;6.83;5.30;;;;;;;32.32;46.15;100738.78;1694528;84;21058;-49
2022/08/16 09:12:13;;;;;;;6.10;5.60;;;;;;;32.32;46.61;100750.05;1697663;83;21526;-51
2022/08/16 09:14:45;;;;;;;5.65;5.03;;;;;;;32.31;46.45;100752.43;1690199;84;21029;-50
2022/08/16 09:17:13;;;;;;;6.25;5.50;;;;;;;32.29;46.42;100750.42;1698738;84;21073;-52
2022/08/16 09:19:40;;;;;;;6.05;5.45;;;;;;;32.27;46.32;100760.52;1701534;84;21063;-51
2022/08/16 09:22:09;;;;;;;6.78;5.78;;;;;;;32.27;46.44;100755.14;1700933;84;21050;-50
2022/08/16 09:24:35;;;;;;;7.17;6.42;;;;;;;32.14;46.91;100753.48;1701178;83;21002;-50
2022/08/16 09:27:03;;;;;;;8.10;6.22;;;;;;;32.04;47.03;100747.80;1699942;83;21054;-51
2022/08/16 09:29:30;;;;;;;6.92;5.83;;;;;;;32.21;46.44;100753.14;1698140;83;21034;-51
2022/08/16 09:31:58;;;;;;;7.58;6.25;;;;;;;32.24;46.58;100758.16;1697768;84;20991;-50
2022/08/16 09:34:24;;;;;;;6.85;6.22;;;;;;;32.21;46.55;100758.52;1698263;84;21026;-53
2022/08/16 09:36:51;;;;;;;8.60;5.85;;;;;;;32.23;46.43;100757.34;1700756;84;21022;-50
2022/08/16 09:39:18;;;;;;;7.33;6.00;;;;;;;32.19;46.40;100747.91;1697532;84;21030;-50
2022/08/16 09:41:50;;;;;;;7.08;6.12;;;;;;;32.20;46.48;100750.09;1700584;84;21532;-53
2022/08/16 09:44:13;;;;;;;6.67;6.05;;;;;;;32.23;46.84;100743.03;1732269;82;21051;-53
2022/08/16 09:46:40;;;;;;;5.62;5.15;;;;;;;32.28;46.68;100756.80;1735075;81;21062;-50
2022/08/16 09:49:07;;;;;;;6.47;5.40;;;;;;;32.31;46.49;100751.09;1732775;81;21007;-51
2022/08/16 09:51:36;;;;;;;10.55;5.75;;;;;;;32.33;46.43;100757.98;1731916;81;21511;-50
2022/08/16 09:54:05;;;;;;;6.05;5.47;;;;;;;32.35;46.26;100752.42;1730924;81;21071;-53
2022/08/16 09:56:34;;;;;;;6.47;5.87;;;;;;;32.38;46.58;100752.05;1731128;81;21027;-50
2022/08/16 09:59:03;;;;;;;8.30;5.62;;;;;;;32.48;46.16;100752.75;1733715;81;21078;-50
2022/08/16 10:01:30;;;;;;;6.03;5.42;;;;;;;32.56;45.81;100750.02;1728397;81;21011;-52
2022/08/16 10:03:57;;;;;;;6.12;4.92;;;;;;;32.61;45.81;100750.32;1698319;84;21030;-51
2022/08/16 10:06:24;;;;;;;5.53;4.90;;;;;;;32.64;45.59;100745.94;1699149;84;21007;-53
2022/08/16 10:08:51;;;;;;;6.60;5.50;;;;;;;32.67;45.38;100750.96;1698657;83;21491;-49
2022/08/16 10:14:04;;;;;;;8.13;5.30;;;;;;;32.66;44.79;100735.33;1703057;84;21046;-50
2022/08/16 10:16:30;;;;;;;6.55;5.00;;;;;;;32.67;45.02;100736.14;1697760;84;20995;-50
2022/08/16 10:18:57;;;;;;;7.83;5.15;;;;;;;32.66;44.73;100727.75;1691068;84;21027;-50
2022/08/16 10:21:23;;;;;;;5.85;5.03;;;;;;;32.65;44.94;100738.17;1700776;84;21059;-53
2022/08/16 10:23:53;;;;;;;5.85;5.03;;;;;;;32.64;44.39;100746.79;1699219;84;21078;-53
2022/08/16 10:26:20;;;;;;;7.53;4.83;;;;;;;32.64;44.27;100763.45;1698646;83;21077;-50
2022/08/16 10:28:47;;;;;;;8.65;5.25;;;;;;;32.63;44.22;100772.54;1700171;84;21523;-53
2022/08/16 10:31:14;;;;;;;8.33;5.08;;;;;;;32.65;43.79;100773.20;1696651;84;21041;-50
2022/08/16 10:33:40;;;;;;;5.72;4.37;;;;;;;32.65;44.09;100774.55;1703036;84;21026;-50
2022/08/16 10:36:08;;;;;;;5.50;5.00;;;;;;;32.65;43.78;100762.42;1699342;84;21014;-54
2022/08/16 10:38:37;;;;;;;6.62;5.12;;;;;;;32.64;43.63;100763.45;1697897;84;21026;-50
2022/08/16 10:41:06;;;;;;;4.70;4.28;;;;;;;32.63;43.49;100756.38;1698023;84;21002;-51
2022/08/16 10:43:35;;;;;;;6.40;4.72;;;;;;;32.63;43.41;100759.06;1689645;84;21031;-50
2022/08/16 10:46:05;;;;;;;5.10;4.35;;;;;;;32.62;43.54;100753.36;1709346;82;21034;-51
2022/08/16 10:48:32;;;;;;;4.70;4.17;;;;;;;32.62;43.55;100750.14;1675694;84;21082;-50
2022/08/16 10:50:59;;;;;;;5.25;4.37;;;;;;;32.62;43.75;100749.32;1678514;84;21087;-50
2022/08/16 10:53:27;;;;;;;4.47;4.08;;;;;;;32.62;43.59;100753.36;1670781;84;21056;-54
2022/08/16 10:55:55;;;;;;;4.50;4.08;;;;;;;32.62;43.33;100753.36;1666297;85;21607;-50
2022/08/16 10:58:22;;;;;;;6.72;4.22;;;;;;;32.61;43.22;100754.36;1657874;84;21607;-50
2022/08/16 11:00:48;;;;;;;5.08;4.60;;;;;;;32.61;43.24;100755.70;1668938;84;21532;-50
2022/08/16 11:03:15;;;;;;;5.83;4.33;;;;;;;32.61;43.75;100759.75;1668402;84;21092;-51
2022/08/16 11:05:43;;;;;;;5.80;5.17;;;;;;;32.60;43.89;100757.55;1667489;84;21056;-52
2022/08/16 11:08:10;;;;;;;5.50;4.37;;;;;;;32.55;44.10;100760.45;1668883;85;21060;-51
2022/08/16 11:10:42;;;;;;;4.10;3.80;;;;;;;32.53;44.57;100763.83;1666120;84;21064;-51
2022/08/16 11:13:12;;;;;;;4.35;3.92;;;;;;;32.52;44.65;100762.16;1667104;85;21037;-50
2022/08/16 11:15:39;;;;;;;5.80;4.33;;;;;;;32.54;44.44;100764.17;1667130;85;21034;-50
2022/08/16 11:18:07;;;;;;;7.67;4.42;;;;;;;32.54;44.56;100764.17;1666872;85;21513;-50
2022/08/16 11:20:34;;;;;;;5.37;4.30;;;;;;;32.54;44.30;100767.69;1666959;85;21131;-55
2022/08/16 11:23:01;;;;;;;4.78;4.40;;;;;;;32.54;44.34;100762.83;1666777;85;21610;-50
2022/08/16 11:25:29;;;;;;;7.75;4.70;;;;;;;32.53;44.47;100764.67;1667008;86;21069;-50